logo
Search for airport 
image banner adimage banner adimage banner ad
image banner ad

SVBQ - Boquemonte

Located in Portuguesa, Venezuela

ICAO - SVBQ, IATA -

Data provided by Airmate  

General information

Coordinates: N9°12'0" W69°45'0"
Elevation is 1001 feet MSL.
 
View others Airports in Zulia

Operational data

Special qualification required
Current time UTC:
Current local time:
Weather at : - ( 0 km )
METAR: SULS 191447Z 19012KT 1000 BR BKN002 16/14 Q1013
View NOTAMs / SUP AIP / TFR affecting this airport [VIEW]
Communications frequencies: [VIEW]

Runways:

RWY identifierQFULength (ft)Width (ft)SurfaceLDA (ft)
18180°262549ASP
36360°262549ASP

Airport contact information

Address: Portuguesa Venezuela

Satellite view of SVBQ